This is the latest recevied weather packets stored in our database for station/object W3BRL. If no packets are shown the sender has not sent any weather packets the latest 10 day(s).
| Time | Temp. | Humidity | Pressure | Rain* | Wind** | Luminosity | Snow |
|---|---|---|---|---|---|---|---|
| 1777587279 | 9.44° C | 62% | 1011.1 hPa | 0 mm | - | 48 W/m² | - |
| 1777585155 | 10.56° C | 57% | 1011.1 hPa | 0 mm | - | 366 W/m² | - |
| 1777584851 | 10.56° C | 56% | 1011 hPa | 0 mm | - | 389 W/m² | - |
| 1777584245 | 10.56° C | 58% | 1011.1 hPa | 0 mm | - | 155 W/m² | - |
| 1777583640 | 9.44° C | 63% | 1011 hPa | 0 mm | - | 296 W/m² | - |
| 1777582732 | 9.44° C | 63% | 1010.9 hPa | 0 mm | - | 245 W/m² | - |
| 1777582121 | 8.89° C | 62% | 1011 hPa | 0 mm | - | 227 W/m² | - |
| 1777581216 | 8.89° C | 64% | 1011.1 hPa | 0 mm | - | 127 W/m² | - |
| 1777580008 | 8.33° C | 66% | 1011.1 hPa | 0 mm | - | 174 W/m² | - |
| 1777577884 | 8.89° C | 64% | 1011.1 hPa | 0 mm | - | 152 W/m² | - |
| 1777577277 | 9.44° C | 66% | 1010.8 hPa | 0 mm | - | 220 W/m² | - |
| 1777576973 | 8.89° C | 66% | 1010.8 hPa | 0 mm | - | 350 W/m² | - |
| 1777576066 | 8.33° C | 70% | 1010.9 hPa | 0 mm | - | 255 W/m² | - |
| 1777571208 | 7.78° C | 77% | 1010.7 hPa | 0 mm | - | 167 W/m² | - |
| 1777570297 | 7.22° C | 76% | 1010.7 hPa | 0 mm | - | 261 W/m² | - |
| 1777569992 | 7.22° C | 78% | 1010.8 hPa | 0 mm | - | 239 W/m² | - |
| 1777569384 | 6.67° C | 78% | 1010.8 hPa | 0 mm | - | 194 W/m² | - |
| 1777566960 | 7.22° C | 81% | 1010.5 hPa | 0 mm | - | 477 W/m² | - |
| 1777566355 | 6.67° C | 82% | 1010.6 hPa | 0 mm | - | 204 W/m² | - |
| 1777565444 | 6.11° C | 90% | 1010.5 hPa | 0 mm | - | 329 W/m² | - |
| 1777565140 | 6.11° C | 90% | 1010.6 hPa | 0 mm | - | 113 W/m² | - |
| 1777564532 | 6.11° C | 91% | 1010.4 hPa | 0 mm | - | 103 W/m² | - |
| 1777564227 | 6.11° C | 90% | 1010.4 hPa | 0 mm | - | 102 W/m² | - |
| 1777563320 | 6.11° C | 90% | 1010.3 hPa | 0 mm | - | 113 W/m² | - |
| 1777563016 | 6.11° C | 90% | 1010.2 hPa | 0 mm | - | 94 W/m² | - |
* Rain latest hour (hover to see other rain measurements)
** Current wind speed in m/s (hover to see current wind gust speed)